Hauptseite
METAR-TAF:

METAR-TAF

Flughäfen :

Bohrplattform

P11-b, Niederlande

Breite: 52-21-36N, Länge: 3-20-30E, Höhe: 24 m

Beobachtung

Neuester Wetterbericht von vor 26 Minuten, um 18:25 UTC
Wind 30 kt aus Süd/Südwest, variierte zwischen Süd/Südost und West/Nordwest
Temperatur 13°C
Luftfeuchtigkeit 82%
Luftdruck 1013 hPa
Sichtweite 10 km oder mehr
Leicht bewölkt in der Höhe von 1400 ft
Aufgelockert bewölkt in der Höhe von 1600 ft

METAR: EHPG 121825Z AUTO 20030KT 150V290 9999 FEW014 SCT016 13/10 Q1013 W///H///

Zeit: 19:51 (18:51 UTC)


TAF: fehlend

Wetterbeobachtungen und Prognosen von mehr als 4000 Flughäfen (METAR und TAF Bericht).

Die verfügbaren Stationen werden durch gelbe und rote Markierungen auf der Karte dargestellt.

Führen Sie die Maus auf sie, um den Namen der Station zu sehen.

Darauf klicken, um die Beobachtung von Wetterbeobachtungen und Prognosen zu sehen.

Um die Karte zu ändern : klicken Sie auf den grünen Tasten mit einem schwarzen Kreuz Zum Vergrößern, auf den grünen Button mit einem Gedankenstrich zu verkleinern, oder auf die grünen Pfeile für benachbarte Karten.


METAR-TAF: